Time;durP1;ratioP1;P1;durP2;ratioP2;P2;SDS_P1;SDS_P2;PMS_P1;PMS_P2;Temp;Humidity;BMP_temperature;BMP_pressure;BME280_temperature;BME280_humidity;BME280_pressure;Samples;Min_cycle;Max_cycle;Signal;HPM_P1;HPM_P2
2023/10/07 00:00:32;;;;;;;9.68;6.07;;;;;;;;;;4380611;32;318003;-85
2023/10/07 00:03:00;;;;;;;10.88;4.43;;;;;;;;;;4373058;32;316966;-85
2023/10/07 00:05:32;;;;;;;10.80;4.85;;;;;;;;;;4384846;32;318242;-84
2023/10/07 00:08:04;;;;;;;6.60;3.92;;;;;;;;;;4373479;32;317691;-85
2023/10/07 00:10:34;;;;;;;11.70;4.22;;;;;;;;;;4381588;32;316861;-85
2023/10/07 00:13:05;;;;;;;8.88;4.53;;;;;;;;;;4372696;32;317758;-84
2023/10/07 00:15:32;;;;;;;7.20;4.47;;;;;;;;;;4377172;32;316657;-85
2023/10/07 00:18:10;;;;;;;7.20;4.18;;;;;;;;;;4368737;32;316785;-82
2023/10/07 00:20:41;;;;;;;6.25;3.28;;;;;;;;;;4382786;32;316739;-85
2023/10/07 00:23:09;;;;;;;11.55;3.55;;;;;;;;;;4369635;32;416510;-84
2023/10/07 00:25:38;;;;;;;6.30;3.53;;;;;;;;;;4382494;32;318125;-85
2023/10/07 00:28:17;;;;;;;6.87;3.75;;;;;;;;;;4368471;32;349100;-85
2023/10/07 00:30:46;;;;;;;7.40;3.97;;;;;;;;;;4368111;32;327108;-85
2023/10/07 00:33:14;;;;;;;6.80;3.55;;;;;;;;;;4383221;32;316619;-84
2023/10/07 00:35:42;;;;;;;6.32;3.78;;;;;;;;;;4383093;32;316639;-86
2023/10/07 00:38:14;;;;;;;5.12;3.50;;;;;;;;;;4367623;32;419040;-86
2023/10/07 00:40:52;;;;;;;9.25;4.57;;;;;;;;;;4389040;32;316801;-84
2023/10/07 00:43:26;;;;;;;8.45;3.50;;;;;;;;;;4383622;32;414707;-85
2023/10/07 00:46:06;;;;;;;7.15;3.60;;;;;;;;;;4384246;32;316541;-85
2023/10/07 00:48:45;;;;;;;6.25;3.53;;;;;;;;;;4389111;32;316574;-84
2023/10/07 00:51:13;;;;;;;7.35;4.03;;;;;;;;;;4381025;32;415403;-84
2023/10/07 00:53:46;;;;;;;10.98;4.95;;;;;;;;;;4396419;32;339430;-83
2023/10/07 00:56:22;;;;;;;14.48;5.97;;;;;;;;;;4380562;32;416681;-83
2023/10/07 00:58:52;;;;;;;16.98;6.10;;;;;;;;;;4384430;32;317665;-86
2023/10/07 01:01:21;;;;;;;7.45;5.03;;;;;;;;;;4390474;32;317806;-85
2023/10/07 01:03:49;;;;;;;12.52;6.65;;;;;;;;;;4376181;32;347112;-85
2023/10/07 01:06:25;;;;;;;17.75;7.80;;;;;;;;;;4377110;32;317639;-84
2023/10/07 01:09:08;;;;;;;19.23;7.72;;;;;;;;;;4372705;32;317830;-85
2023/10/07 01:11:40;;;;;;;22.37;9.07;;;;;;;;;;4383415;32;317953;-84
2023/10/07 01:14:09;;;;;;;22.98;9.73;;;;;;;;;;4370440;32;420484;-84
2023/10/07 01:16:44;;;;;;;13.65;7.20;;;;;;;;;;4384095;32;317753;-84
2023/10/07 01:19:27;;;;;;;18.48;7.87;;;;;;;;;;4368417;32;416322;-85
2023/10/07 01:21:58;;;;;;;16.60;7.72;;;;;;;;;;4372667;32;317883;-85
2023/10/07 01:30:15;;;;;;;17.73;8.05;;;;;;;;;;4368464;32;317913;-86
2023/10/07 01:32:49;;;;;;;20.33;8.00;;;;;;;;;;4371189;32;379288;-85
2023/10/07 01:35:25;;;;;;;21.50;9.32;;;;;;;;;;4383483;32;317811;-85
2023/10/07 01:37:59;;;;;;;19.77;9.80;;;;;;;;;;4371089;32;317945;-84
2023/10/07 01:40:45;;;;;;;16.30;8.82;;;;;;;;;;4383678;32;317775;-85
2023/10/07 01:43:12;;;;;;;20.40;8.02;;;;;;;;;;4373006;32;388911;-84
2023/10/07 01:45:40;;;;;;;21.75;8.50;;;;;;;;;;4386427;32;317794;-84
2023/10/07 01:48:08;;;;;;;16.45;7.53;;;;;;;;;;4369332;32;417000;-85
2023/10/07 01:50:40;;;;;;;20.02;8.57;;;;;;;;;;4383179;32;317723;-85
2023/10/07 01:53:08;;;;;;;14.80;7.65;;;;;;;;;;4358231;32;389178;-85
2023/10/07 01:55:42;;;;;;;12.90;6.80;;;;;;;;;;4386671;32;317684;-86
2023/10/07 01:58:13;;;;;;;19.27;7.18;;;;;;;;;;4370911;32;387112;-85
2023/10/07 02:00:44;;;;;;;13.93;7.40;;;;;;;;;;4385629;32;317684;-85
2023/10/07 02:03:16;;;;;;;13.20;7.18;;;;;;;;;;4372000;32;417011;-85
2023/10/07 02:05:48;;;;;;;13.98;8.05;;;;;;;;;;4373384;32;401071;-82
2023/10/07 02:08:20;;;;;;;16.42;8.20;;;;;;;;;;4383099;32;317961;-85
2023/10/07 02:10:50;;;;;;;18.62;7.93;;;;;;;;;;4373947;32;317832;-85
2023/10/07 02:13:19;;;;;;;14.15;7.75;;;;;;;;;;4385407;32;317945;-85
2023/10/07 02:15:48;;;;;;;15.73;7.12;;;;;;;;;;4373928;32;317800;-84
2023/10/07 02:18:16;;;;;;;17.87;7.68;;;;;;;;;;4382338;32;355828;-84
2023/10/07 02:20:49;;;;;;;15.30;6.60;;;;;;;;;;4374614;32;317883;-85
2023/10/07 02:23:22;;;;;;;12.93;6.68;;;;;;;;;;4385290;32;318213;-84
2023/10/07 02:25:51;;;;;;;14.20;5.45;;;;;;;;;;4374462;32;317899;-82
2023/10/07 02:28:21;;;;;;;11.77;6.37;;;;;;;;;;4375315;32;318082;-85
2023/10/07 02:31:00;;;;;;;10.93;6.68;;;;;;;;;;4375209;32;317910;-85
2023/10/07 02:33:28;;;;;;;14.50;7.72;;;;;;;;;;4383538;32;317673;-85
2023/10/07 02:35:58;;;;;;;13.40;7.27;;;;;;;;;;4371931;32;317780;-85
2023/10/07 02:38:35;;;;;;;14.02;6.80;;;;;;;;;;4384748;32;317861;-85
2023/10/07 02:41:16;;;;;;;11.38;6.43;;;;;;;;;;4374745;32;317727;-85
2023/10/07 02:43:48;;;;;;;14.75;5.70;;;;;;;;;;4370679;32;330588;-83
2023/10/07 02:46:31;;;;;;;10.38;5.45;;;;;;;;;;4381834;32;318088;-85
2023/10/07 02:49:05;;;;;;;12.90;5.28;;;;;;;;;;4375450;32;317775;-84
2023/10/07 02:51:33;;;;;;;8.23;5.10;;;;;;;;;;4385230;32;317820;-84
2023/10/07 02:54:06;;;;;;;11.40;5.97;;;;;;;;;;4370613;32;316948;-83
2023/10/07 02:56:44;;;;;;;14.63;7.13;;;;;;;;;;4384846;32;317729;-84
2023/10/07 02:59:27;;;;;;;39.00;16.63;;;;;;;;;;4371762;32;416858;-83
2023/10/07 03:05:03;;;;;;;30.17;13.30;;;;;;;;;;4358982;32;364174;-84
2023/10/07 03:07:34;;;;;;;22.80;11.77;;;;;;;;;;4383307;32;318997;-85
2023/10/07 03:10:16;;;;;;;24.07;9.30;;;;;;;;;;4369310;32;319208;-85
2023/10/07 03:12:47;;;;;;;27.27;8.97;;;;;;;;;;4373858;32;317829;-83
2023/10/07 03:15:30;;;;;;;14.90;8.67;;;;;;;;;;4385558;32;317896;-83
2023/10/07 03:17:58;;;;;;;17.50;8.27;;;;;;;;;;4370772;32;317915;-83
2023/10/07 03:20:28;;;;;;;12.75;7.18;;;;;;;;;;4384039;32;328829;-83
2023/10/07 03:23:14;;;;;;;21.47;7.70;;;;;;;;;;4372694;32;317720;-83
2023/10/07 03:26:05;;;;;;;21.53;10.47;;;;;;;;;;4384935;32;318027;-83
2023/10/07 03:28:36;;;;;;;31.60;10.70;;;;;;;;;;4370832;32;419634;-85
2023/10/07 03:31:10;;;;;;;32.00;12.63;;;;;;;;;;4373250;32;336356;-84
2023/10/07 03:33:49;;;;;;;27.10;13.57;;;;;;;;;;4384041;32;319008;-83
2023/10/07 03:36:40;;;;;;;26.77;12.73;;;;;;;;;;4366408;32;419265;-84
2023/10/07 03:39:23;;;;;;;33.87;12.47;;;;;;;;;;4369076;32;419113;-85
2023/10/07 03:41:55;;;;;;;38.07;12.27;;;;;;;;;;4373855;32;349303;-85
2023/10/07 03:44:26;;;;;;;25.80;11.00;;;;;;;;;;4380823;32;318859;-84
2023/10/07 03:46:57;;;;;;;22.37;10.43;;;;;;;;;;4375281;32;318931;-82
2023/10/07 03:49:33;;;;;;;24.60;9.17;;;;;;;;;;4384879;32;319127;-85
2023/10/07 03:52:06;;;;;;;22.10;15.50;;;;;;;;;;4369768;32;318055;-83
2023/10/07 03:54:34;;;;;;;25.00;19.10;;;;;;;;;;4378234;32;318775;-83
2023/10/07 03:57:02;;;;;;;39.73;34.40;;;;;;;;;;4372181;32;342917;-84
2023/10/07 03:59:34;;;;;;;28.93;23.87;;;;;;;;;;4382979;32;318688;-83
2023/10/07 04:02:12;;;;;;;27.47;21.27;;;;;;;;;;4370752;32;319394;-84
2023/10/07 04:04:41;;;;;;;21.77;13.60;;;;;;;;;;4381709;32;319106;-83
2023/10/07 04:07:08;;;;;;;32.25;19.12;;;;;;;;;;4372923;32;319015;-85
2023/10/07 04:09:36;;;;;;;21.80;14.80;;;;;;;;;;4383492;32;318853;-85
2023/10/07 04:12:06;;;;;;;15.63;11.75;;;;;;;;;;4372231;32;318967;-83
2023/10/07 04:14:35;;;;;;;15.95;9.15;;;;;;;;;;4384630;32;318939;-84
2023/10/07 04:17:08;;;;;;;17.92;8.30;;;;;;;;;;4371070;32;318213;-83
2023/10/07 04:19:42;;;;;;;19.27;10.50;;;;;;;;;;4376643;32;317737;-85
2023/10/07 04:22:09;;;;;;;21.23;8.97;;;;;;;;;;4370802;32;318773;-85
2023/10/07 04:24:44;;;;;;;16.77;9.63;;;;;;;;;;4384640;32;317702;-85
2023/10/07 04:27:18;;;;;;;17.62;9.25;;;;;;;;;;4369815;32;416288;-85
2023/10/07 04:29:51;;;;;;;18.73;9.32;;;;;;;;;;4371974;32;317922;-83
2023/10/07 04:32:22;;;;;;;22.00;9.00;;;;;;;;;;4381474;32;318204;-83
2023/10/07 04:35:06;;;;;;;27.70;10.23;;;;;;;;;;4371310;32;410246;-84
2023/10/07 04:37:47;;;;;;;17.40;9.20;;;;;;;;;;4383605;32;318853;-83
2023/10/07 04:43:25;;;;;;;26.70;11.43;;;;;;;;;;4373057;32;318912;-84
2023/10/07 04:45:49;;;;;;;38.07;12.37;;;;;;;;;;4372492;32;318946;-84
2023/10/07 04:48:31;;;;;;;34.67;15.37;;;;;;;;;;4377352;32;318889;-85
2023/10/07 04:51:03;;;;;;;31.67;14.20;;;;;;;;;;4372730;32;318983;-83
2023/10/07 04:53:38;;;;;;;32.03;13.37;;;;;;;;;;4383513;32;318953;-84
2023/10/07 04:56:08;;;;;;;38.57;13.67;;;;;;;;;;4369510;32;318966;-84
2023/10/07 04:58:39;;;;;;;36.50;15.30;;;;;;;;;;4383167;32;319015;-85
2023/10/07 05:01:22;;;;;;;36.50;14.10;;;;;;;;;;4371821;32;319547;-85
2023/10/07 05:03:55;;;;;;;30.27;14.03;;;;;;;;;;4370871;32;319015;-82
2023/10/07 05:06:22;;;;;;;28.87;12.50;;;;;;;;;;4381230;32;319071;-82
2023/10/07 05:08:48;;;;;;;34.83;13.70;;;;;;;;;;4371232;32;318826;-83
2023/10/07 05:11:17;;;;;;;28.73;13.43;;;;;;;;;;4383110;32;318962;-84
2023/10/07 05:13:45;;;;;;;30.23;12.20;;;;;;;;;;4373666;32;319068;-84
2023/10/07 05:16:14;;;;;;;25.87;11.83;;;;;;;;;;4378280;32;319320;-86
2023/10/07 05:18:41;;;;;;;22.53;9.67;;;;;;;;;;4383721;32;318974;-86
2023/10/07 05:21:11;;;;;;;25.92;11.65;;;;;;;;;;4371675;32;317903;-86
2023/10/07 05:23:41;;;;;;;30.07;12.53;;;;;;;;;;4387630;32;319185;-84
2023/10/07 05:26:10;;;;;;;21.87;10.00;;;;;;;;;;4378221;32;318901;-81
2023/10/07 05:28:39;;;;;;;29.23;9.90;;;;;;;;;;4392800;32;319027;-84
2023/10/07 05:31:08;;;;;;;24.08;11.15;;;;;;;;;;4380511;32;317980;-89
2023/10/07 05:33:37;;;;;;;18.27;9.83;;;;;;;;;;4392366;32;318852;-89
2023/10/07 05:36:11;;;;;;;21.52;9.65;;;;;;;;;;4371136;32;317857;-87
2023/10/07 05:38:40;;;;;;;19.95;9.75;;;;;;;;;;4383149;32;318419;-88
2023/10/07 05:41:12;;;;;;;19.12;8.95;;;;;;;;;;4379897;32;318043;-88
2023/10/07 05:43:40;;;;;;;24.35;10.07;;;;;;;;;;4389274;32;317883;-90
2023/10/07 05:46:08;;;;;;;16.60;8.93;;;;;;;;;;4372459;32;319336;-84
2023/10/07 05:48:38;;;;;;;18.80;9.30;;;;;;;;;;4385451;32;317964;-90
2023/10/07 05:51:07;;;;;;;19.40;7.28;;;;;;;;;;4373221;32;317638;-84
2023/10/07 05:53:39;;;;;;;16.12;6.75;;;;;;;;;;4383328;32;318143;-88
2023/10/07 05:56:08;;;;;;;16.40;8.67;;;;;;;;;;4371712;32;317948;-83
2023/10/07 05:58:36;;;;;;;36.35;11.43;;;;;;;;;;4382643;32;317345;-82
2023/10/07 06:01:04;;;;;;;34.22;15.05;;;;;;;;;;4373799;32;318972;-83
2023/10/07 06:03:32;;;;;;;40.97;15.45;;;;;;;;;;4384451;32;318839;-81
2023/10/07 06:06:04;;;;;;;40.58;15.55;;;;;;;;;;4371425;32;348415;-82
2023/10/07 06:08:33;;;;;;;28.57;13.20;;;;;;;;;;4383987;32;318570;-84
2023/10/07 06:11:01;;;;;;;19.70;9.53;;;;;;;;;;4376204;32;318957;-88
2023/10/07 06:13:29;;;;;;;15.88;8.23;;;;;;;;;;4382808;32;347773;-94
2023/10/07 06:15:59;;;;;;;24.58;7.45;;;;;;;;;;4373720;32;318258;-90
2023/10/07 06:18:27;;;;;;;19.75;7.20;;;;;;;;;;4382948;32;318048;-87
2023/10/07 06:21:00;;;;;;;21.87;7.95;;;;;;;;;;4372705;32;317675;-92
2023/10/07 06:23:30;;;;;;;14.50;6.32;;;;;;;;;;4383141;32;317676;-90
2023/10/07 06:26:09;;;;;;;15.83;6.37;;;;;;;;;;4374473;32;317834;-90
2023/10/07 06:28:41;;;;;;;15.68;6.53;;;;;;;;;;4388106;32;317220;-88
2023/10/07 06:31:12;;;;;;;14.85;5.78;;;;;;;;;;4379000;32;317709;-91
2023/10/07 06:33:41;;;;;;;11.02;5.62;;;;;;;;;;4388014;32;317820;-90
2023/10/07 06:36:10;;;;;;;7.23;5.20;;;;;;;;;;4374862;32;317786;-90
2023/10/07 06:38:45;;;;;;;12.07;6.13;;;;;;;;;;4386590;32;317176;-91
2023/10/07 06:41:13;;;;;;;7.60;4.60;;;;;;;;;;4370780;32;420339;-90
2023/10/07 06:43:42;;;;;;;10.53;4.80;;;;;;;;;;4385319;32;316964;-93
2023/10/07 06:46:11;;;;;;;9.83;5.70;;;;;;;;;;4366555;32;418384;-92
2023/10/07 06:48:39;;;;;;;11.70;5.85;;;;;;;;;;4387666;32;316648;-91
2023/10/07 06:51:10;;;;;;;12.98;5.45;;;;;;;;;;4377621;32;317989;-88
2023/10/07 06:53:42;;;;;;;10.52;5.40;;;;;;;;;;4387887;32;317824;-90
2023/10/07 06:56:12;;;;;;;14.18;6.20;;;;;;;;;;4372851;32;416758;-91
2023/10/07 06:58:40;;;;;;;10.50;5.30;;;;;;;;;;4390612;32;317495;-90
2023/10/07 07:01:17;;;;;;;12.00;5.57;;;;;;;;;;4377784;32;317550;-93
2023/10/07 07:03:45;;;;;;;9.38;4.87;;;;;;;;;;4388081;32;317464;-91
2023/10/07 07:06:17;;;;;;;9.85;4.40;;;;;;;;;;4386762;32;316587;-90
2023/10/07 07:08:50;;;;;;;12.77;5.30;;;;;;;;;;4390096;32;316673;-89
2023/10/07 07:11:18;;;;;;;8.02;4.60;;;;;;;;;;4374037;32;416964;-90
2023/10/07 07:13:45;;;;;;;12.15;5.12;;;;;;;;;;4388904;32;316856;-88
2023/10/07 07:16:13;;;;;;;9.68;5.43;;;;;;;;;;4384476;32;317727;-93
2023/10/07 07:18:43;;;;;;;14.43;5.35;;;;;;;;;;4369577;32;419161;-91
2023/10/07 07:21:14;;;;;;;9.30;4.45;;;;;;;;;;4384816;32;317129;-95
2023/10/07 07:23:48;;;;;;;7.60;5.53;;;;;;;;;;4369000;32;415847;-93
2023/10/07 07:26:21;;;;;;;14.50;5.37;;;;;;;;;;4383517;32;316715;-93
2023/10/07 07:28:47;;;;;;;8.80;4.95;;;;;;;;;;4380356;32;317416;-94
2023/10/07 07:31:26;;;;;;;13.68;4.78;;;;;;;;;;4380060;32;316489;-95
2023/10/07 07:33:56;;;;;;;10.73;4.72;;;;;;;;;;4368513;32;386565;-91
2023/10/07 07:36:37;;;;;;;10.68;5.45;;;;;;;;;;4373510;32;342958;-94
2023/10/07 07:39:09;;;;;;;10.88;5.72;;;;;;;;;;4382445;32;350494;-93
2023/10/07 07:41:55;;;;;;;19.45;5.68;;;;;;;;;;4373999;32;333474;-91
2023/10/07 07:44:32;;;;;;;22.80;5.37;;;;;;;;;;4371658;32;317799;-93
2023/10/07 07:47:02;;;;;;;10.85;5.50;;;;;;;;;;4384521;32;317681;-89
2023/10/07 07:49:32;;;;;;;8.70;4.22;;;;;;;;;;4375297;32;324734;-90
2023/10/07 07:52:00;;;;;;;8.10;5.20;;;;;;;;;;4383695;32;316768;-89
2023/10/07 07:54:29;;;;;;;12.43;5.62;;;;;;;;;;4367533;32;316723;-94
2023/10/07 07:57:04;;;;;;;11.95;4.85;;;;;;;;;;4382801;32;317641;-94
2023/10/07 07:59:32;;;;;;;7.57;4.32;;;;;;;;;;4373276;32;317538;-90
2023/10/07 08:02:11;;;;;;;9.43;4.87;;;;;;;;;;4383455;32;316547;-95
2023/10/07 08:04:42;;;;;;;11.30;5.37;;;;;;;;;;4369523;32;316670;-95
2023/10/07 08:07:18;;;;;;;16.08;5.10;;;;;;;;;;4384437;32;317696;-95
2023/10/07 08:09:50;;;;;;;15.57;4.85;;;;;;;;;;4371098;32;420310;-94
2023/10/07 08:12:28;;;;;;;6.20;4.85;;;;;;;;;;4374024;32;317654;-89
2023/10/07 08:14:58;;;;;;;14.32;4.95;;;;;;;;;;4383884;32;316470;-92
2023/10/07 08:17:27;;;;;;;9.98;4.85;;;;;;;;;;4373318;32;317425;-96
2023/10/07 08:19:54;;;;;;;7.57;4.37;;;;;;;;;;4384756;32;316649;-94
2023/10/07 08:22:23;;;;;;;8.30;4.07;;;;;;;;;;4372184;32;316634;-93
2023/10/07 08:24:52;;;;;;;8.98;4.62;;;;;;;;;;4380297;32;346118;-96
2023/10/07 08:30:09;;;;;;;10.43;4.60;;;;;;;;;;4384788;32;316654;-93
2023/10/07 08:32:39;;;;;;;6.22;4.35;;;;;;;;;;4372600;32;317533;-90
2023/10/07 08:35:14;;;;;;;5.85;3.62;;;;;;;;;;4386636;32;316700;-83
2023/10/07 08:37:45;;;;;;;12.98;5.18;;;;;;;;;;4371407;32;416504;-82
2023/10/07 08:40:25;;;;;;;11.50;4.00;;;;;;;;;;4387665;32;317697;-85
2023/10/07 08:42:58;;;;;;;8.85;4.25;;;;;;;;;;4366799;32;418577;-84
2023/10/07 08:45:28;;;;;;;13.00;4.03;;;;;;;;;;4374919;32;316964;-90
2023/10/07 08:48:08;;;;;;;12.07;4.93;;;;;;;;;;4384036;32;317855;-85
2023/10/07 08:50:42;;;;;;;9.40;4.95;;;;;;;;;;4369828;32;317624;-83
2023/10/07 08:53:15;;;;;;;15.07;4.62;;;;;;;;;;4384685;32;316914;-83
2023/10/07 08:55:46;;;;;;;10.25;3.47;;;;;;;;;;4369378;32;416713;-85
2023/10/07 08:58:16;;;;;;;7.07;4.18;;;;;;;;;;4385045;32;317730;-83
2023/10/07 09:00:45;;;;;;;7.50;5.03;;;;;;;;;;4368971;32;416128;-81
2023/10/07 09:03:15;;;;;;;7.47;3.78;;;;;;;;;;4384854;32;316944;-86
2023/10/07 09:05:48;;;;;;;27.60;5.75;;;;;;;;;;4375187;32;415964;-86
2023/10/07 09:08:16;;;;;;;9.45;4.57;;;;;;;;;;4385780;32;317853;-86
2023/10/07 09:10:45;;;;;;;17.80;4.60;;;;;;;;;;4368282;32;416171;-87
2023/10/07 09:13:19;;;;;;;13.05;4.57;;;;;;;;;;4385283;32;318106;-85
2023/10/07 09:15:53;;;;;;;7.60;4.45;;;;;;;;;;4370182;32;417021;-84
2023/10/07 09:18:28;;;;;;;6.57;4.05;;;;;;;;;;4373338;32;316994;-88
2023/10/07 09:20:56;;;;;;;10.38;4.12;;;;;;;;;;4384289;32;316923;-86
2023/10/07 09:23:35;;;;;;;6.87;3.80;;;;;;;;;;4372163;32;318195;-85
2023/10/07 09:26:16;;;;;;;8.23;4.78;;;;;;;;;;4385819;32;316769;-84
2023/10/07 09:28:47;;;;;;;6.47;4.07;;;;;;;;;;4370513;32;417217;-86
2023/10/07 09:31:19;;;;;;;8.32;4.50;;;;;;;;;;4385659;32;316593;-87
2023/10/07 09:33:49;;;;;;;7.32;4.47;;;;;;;;;;4372124;32;416558;-83
2023/10/07 09:36:33;;;;;;;13.45;3.83;;;;;;;;;;4373046;32;316839;-83
2023/10/07 09:39:31;;;;;;;6.60;3.92;;;;;;;;;;4374243;32;318041;-85
2023/10/07 09:42:10;;;;;;;10.60;4.72;;;;;;;;;;4368240;32;417503;-87
2023/10/07 09:44:39;;;;;;;8.10;4.10;;;;;;;;;;4375512;32;317645;-86
2023/10/07 09:47:20;;;;;;;7.25;3.87;;;;;;;;;;4381425;32;316764;-84
2023/10/07 09:49:48;;;;;;;10.13;4.28;;;;;;;;;;4373650;32;417262;-84
2023/10/07 09:52:29;;;;;;;14.70;3.80;;;;;;;;;;4389259;32;317781;-85
2023/10/07 09:55:20;;;;;;;10.63;3.62;;;;;;;;;;4369283;32;418218;-84
2023/10/07 09:58:01;;;;;;;9.88;3.65;;;;;;;;;;4378598;32;417958;-85
2023/10/07 10:00:40;;;;;;;13.32;4.80;;;;;;;;;;4358536;32;316460;-86
2023/10/07 10:03:30;;;;;;;8.90;4.05;;;;;;;;;;4397650;32;317539;-88
2023/10/07 10:06:16;;;;;;;10.45;3.62;;;;;;;;;;4367184;32;416044;-86
2023/10/07 10:08:57;;;;;;;13.90;4.43;;;;;;;;;;4373248;32;418134;-86
2023/10/07 10:11:44;;;;;;;7.53;4.53;;;;;;;;;;4376570;32;317982;-86
2023/10/07 10:14:19;;;;;;;12.07;4.50;;;;;;;;;;4389117;32;316789;-87
2023/10/07 10:16:52;;;;;;;8.02;5.12;;;;;;;;;;4374718;32;418252;-86
2023/10/07 10:19:37;;;;;;;10.80;4.65;;;;;;;;;;4379603;32;345964;-86
2023/10/07 10:22:12;;;;;;;12.55;4.32;;;;;;;;;;4390061;32;317853;-86
2023/10/07 10:24:43;;;;;;;13.18;4.65;;;;;;;;;;4377087;32;318139;-85
2023/10/07 10:27:11;;;;;;;16.20;4.43;;;;;;;;;;4391168;32;317479;-85
2023/10/07 10:29:55;;;;;;;5.62;3.95;;;;;;;;;;4380590;32;317984;-83
2023/10/07 10:32:29;;;;;;;10.45;4.12;;;;;;;;;;4379544;32;316765;-85
2023/10/07 10:35:01;;;;;;;8.23;4.25;;;;;;;;;;4387937;32;317504;-84
2023/10/07 10:37:30;;;;;;;4.90;3.53;;;;;;;;;;4378289;32;316953;-84
2023/10/07 10:40:05;;;;;;;10.60;4.87;;;;;;;;;;4388331;32;317016;-84
2023/10/07 10:42:41;;;;;;;9.65;4.25;;;;;;;;;;4375688;32;317954;-83
2023/10/07 10:45:16;;;;;;;6.78;5.40;;;;;;;;;;4389531;32;316900;-85
2023/10/07 10:47:50;;;;;;;10.85;4.37;;;;;;;;;;4372328;32;419153;-86
2023/10/07 10:50:29;;;;;;;6.78;3.92;;;;;;;;;;4378554;32;317826;-83
2023/10/07 10:52:59;;;;;;;7.28;4.25;;;;;;;;;;4385955;32;316885;-84
2023/10/07 10:55:34;;;;;;;7.50;4.45;;;;;;;;;;4376020;32;316899;-83
2023/10/07 10:58:01;;;;;;;9.85;4.45;;;;;;;;;;4384616;32;316799;-85
2023/10/07 11:00:29;;;;;;;7.70;4.28;;;;;;;;;;4375103;32;316858;-84
2023/10/07 11:02:57;;;;;;;10.82;4.87;;;;;;;;;;4380441;32;316914;-82
2023/10/07 11:05:26;;;;;;;8.57;4.18;;;;;;;;;;4373271;32;317638;-86
2023/10/07 11:07:54;;;;;;;11.70;4.43;;;;;;;;;;4384532;32;316980;-86
2023/10/07 11:10:23;;;;;;;9.23;3.97;;;;;;;;;;4374867;32;348457;-87
2023/10/07 11:12:52;;;;;;;6.90;4.47;;;;;;;;;;4383713;32;316805;-84
2023/10/07 11:15:24;;;;;;;6.57;4.10;;;;;;;;;;4375113;32;316752;-84
2023/10/07 11:17:56;;;;;;;6.28;4.35;;;;;;;;;;4384788;32;321880;-84
2023/10/07 11:20:32;;;;;;;14.13;4.35;;;;;;;;;;4374401;32;316915;-89
2023/10/07 11:23:00;;;;;;;11.25;3.85;;;;;;;;;;4388489;32;317630;-87
2023/10/07 11:25:27;;;;;;;6.12;4.03;;;;;;;;;;4376798;32;317822;-87
2023/10/07 11:27:55;;;;;;;7.30;3.83;;;;;;;;;;4389238;32;316659;-88
2023/10/07 11:30:24;;;;;;;8.55;4.22;;;;;;;;;;4377375;32;316895;-85
2023/10/07 11:32:51;;;;;;;7.70;4.07;;;;;;;;;;4382153;32;350221;-80
2023/10/07 11:35:20;;;;;;;7.95;3.55;;;;;;;;;;4377274;32;316487;-80
2023/10/07 11:37:57;;;;;;;9.20;3.80;;;;;;;;;;4387712;32;317014;-83
2023/10/07 11:40:24;;;;;;;5.82;3.80;;;;;;;;;;4375768;32;316832;-80
2023/10/07 11:42:52;;;;;;;6.60;4.28;;;;;;;;;;4383717;32;316980;-80
2023/10/07 11:45:22;;;;;;;5.18;3.70;;;;;;;;;;4374786;32;394432;-83
2023/10/07 11:47:50;;;;;;;6.30;4.00;;;;;;;;;;4385208;32;316702;-86
2023/10/07 11:50:18;;;;;;;6.80;4.07;;;;;;;;;;4374232;32;316699;-84
2023/10/07 11:52:46;;;;;;;6.68;3.75;;;;;;;;;;4381403;32;316936;-84
2023/10/07 11:55:17;;;;;;;6.00;3.92;;;;;;;;;;4382929;32;340508;-83
2023/10/07 11:57:44;;;;;;;7.80;4.10;;;;;;;;;;4372161;32;418169;-83
2023/10/07 12:00:22;;;;;;;7.05;3.22;;;;;;;;;;4384782;32;316753;-83
2023/10/07 12:02:50;;;;;;;7.35;3.83;;;;;;;;;;4368385;32;416032;-82
2023/10/07 12:05:18;;;;;;;8.00;3.55;;;;;;;;;;4374821;32;317066;-84
2023/10/07 12:07:47;;;;;;;6.90;3.97;;;;;;;;;;4387191;32;316467;-83
2023/10/07 12:10:17;;;;;;;9.65;3.83;;;;;;;;;;4384703;32;316557;-83
2023/10/07 12:12:45;;;;;;;6.47;3.62;;;;;;;;;;4369549;32;416280;-83
2023/10/07 12:15:15;;;;;;;8.63;4.12;;;;;;;;;;4385004;32;316902;-83
2023/10/07 12:17:44;;;;;;;7.55;4.03;;;;;;;;;;4373021;32;416003;-83
2023/10/07 12:20:13;;;;;;;11.45;4.57;;;;;;;;;;4382199;32;347998;-83
2023/10/07 12:22:42;;;;;;;8.75;3.83;;;;;;;;;;4372759;32;317844;-83
2023/10/07 12:25:16;;;;;;;11.80;4.53;;;;;;;;;;4386192;32;316921;-83
2023/10/07 12:27:45;;;;;;;7.03;3.72;;;;;;;;;;4373673;32;417492;-83
2023/10/07 12:30:17;;;;;;;7.60;3.95;;;;;;;;;;4383650;32;316886;-83
2023/10/07 12:32:45;;;;;;;6.47;3.62;;;;;;;;;;4359251;32;416277;-82
2023/10/07 12:35:13;;;;;;;6.40;3.87;;;;;;;;;;4383899;32;316634;-83
2023/10/07 12:37:46;;;;;;;5.40;3.42;;;;;;;;;;4374050;32;316699;-83
2023/10/07 12:40:17;;;;;;;6.62;3.80;;;;;;;;;;4386123;32;316673;-83
2023/10/07 12:42:47;;;;;;;6.35;3.67;;;;;;;;;;4369797;32;415807;-83
2023/10/07 12:45:14;;;;;;;7.50;3.95;;;;;;;;;;4385918;32;316658;-84
2023/10/07 12:47:42;;;;;;;7.00;3.70;;;;;;;;;;4374034;32;415880;-83
2023/10/07 12:50:24;;;;;;;9.07;3.30;;;;;;;;;;4372388;32;317297;-84
2023/10/07 12:52:52;;;;;;;6.90;3.78;;;;;;;;;;4386221;32;316530;-84
2023/10/07 12:55:20;;;;;;;7.60;4.10;;;;;;;;;;4410748;32;20659;-83
2023/10/07 12:57:49;;;;;;;6.32;3.45;;;;;;;;;;4410686;32;20202;-83
2023/10/07 13:00:22;;;;;;;8.27;3.60;;;;;;;;;;4410229;32;20576;-83
2023/10/07 13:02:50;;;;;;;7.97;3.58;;;;;;;;;;4409147;32;20221;-83
2023/10/07 13:05:22;;;;;;;12.63;4.32;;;;;;;;;;4409689;32;20562;-83
2023/10/07 13:07:51;;;;;;;8.25;3.87;;;;;;;;;;4410556;32;20669;-86
2023/10/07 13:10:19;;;;;;;6.75;3.65;;;;;;;;;;4413901;32;20289;-83
2023/10/07 13:12:46;;;;;;;6.07;3.65;;;;;;;;;;4412580;32;20530;-85
2023/10/07 13:15:18;;;;;;;8.20;4.32;;;;;;;;;;4413220;32;20222;-85
2023/10/07 13:17:46;;;;;;;6.00;3.75;;;;;;;;;;4414197;32;20308;-86
2023/10/07 13:20:27;;;;;;;5.32;3.45;;;;;;;;;;4432567;27;20367;-92
2023/10/07 13:23:10;;;;;;;18.83;4.22;;;;;;;;;;4388620;32;20252;-92
2023/10/07 13:25:50;;;;;;;7.95;3.60;;;;;;;;;;4307853;32;20359;-92
2023/10/07 13:28:31;;;;;;;7.07;3.87;;;;;;;;;;4346921;32;20269;-91
2023/10/07 13:31:18;;;;;;;10.75;3.80;;;;;;;;;;4342087;32;20699;-92
2023/10/07 13:34:07;;;;;;;7.22;3.12;;;;;;;;;;4338321;32;20368;-92
2023/10/07 13:36:45;;;;;;;7.32;3.47;;;;;;;;;;4358564;32;20250;-92
2023/10/07 13:39:28;;;;;;;7.95;3.83;;;;;;;;;;4333275;32;20250;-93
2023/10/07 13:42:04;;;;;;;5.45;3.90;;;;;;;;;;4336826;32;20234;-92
2023/10/07 13:44:38;;;;;;;6.40;3.83;;;;;;;;;;4347255;32;20250;-92
2023/10/07 13:47:17;;;;;;;14.35;4.12;;;;;;;;;;4359729;32;20254;-92
2023/10/07 13:49:53;;;;;;;11.45;4.43;;;;;;;;;;4343934;32;20266;-92
2023/10/07 13:52:40;;;;;;;5.60;3.50;;;;;;;;;;4370631;32;20255;-92
2023/10/07 13:55:22;;;;;;;6.10;3.67;;;;;;;;;;4390834;32;20373;-92
2023/10/07 13:57:59;;;;;;;9.23;3.85;;;;;;;;;;4385759;32;20225;-93
2023/10/07 14:00:36;;;;;;;8.30;3.80;;;;;;;;;;4392003;32;20391;-91
2023/10/07 14:03:19;;;;;;;7.82;3.55;;;;;;;;;;4372614;32;20302;-91
2023/10/07 14:05:51;;;;;;;8.35;3.65;;;;;;;;;;4374550;32;20256;-93
2023/10/07 14:08:23;;;;;;;5.10;3.35;;;;;;;;;;4370984;32;20774;-92
2023/10/07 14:11:00;;;;;;;6.62;4.15;;;;;;;;;;4391575;32;20242;-92
2023/10/07 14:13:32;;;;;;;8.25;3.92;;;;;;;;;;4363594;32;20304;-92
2023/10/07 14:16:08;;;;;;;4.68;2.85;;;;;;;;;;4370465;32;20249;-92
2023/10/07 14:18:39;;;;;;;6.80;3.62;;;;;;;;;;4390877;32;20237;-92
2023/10/07 14:21:07;;;;;;;6.35;3.95;;;;;;;;;;4390471;32;20242;-92
2023/10/07 14:23:37;;;;;;;7.90;3.72;;;;;;;;;;4385340;32;20249;-91
2023/10/07 14:26:15;;;;;;;6.03;3.70;;;;;;;;;;4390989;32;20268;-92
2023/10/07 14:28:56;;;;;;;6.18;3.92;;;;;;;;;;4391596;32;20683;-92
2023/10/07 14:31:42;;;;;;;10.02;4.12;;;;;;;;;;4357275;32;20256;-91
2023/10/07 14:34:20;;;;;;;7.75;3.42;;;;;;;;;;4390101;32;20226;-92
2023/10/07 14:39:37;;;;;;;9.10;3.45;;;;;;;;;;4401814;32;20281;-91
2023/10/07 14:42:07;;;;;;;6.93;3.65;;;;;;;;;;4386335;32;20214;-91
2023/10/07 14:44:48;;;;;;;7.20;3.62;;;;;;;;;;4403025;32;20249;-92
2023/10/07 14:47:16;;;;;;;7.70;4.60;;;;;;;;;;4392647;32;20317;-92
2023/10/07 14:49:49;;;;;;;6.72;4.45;;;;;;;;;;4386844;32;20811;-91
2023/10/07 14:52:22;;;;;;;6.55;3.67;;;;;;;;;;4370274;32;20765;-91
2023/10/07 14:54:57;;;;;;;7.15;4.12;;;;;;;;;;4370550;32;20241;-91
2023/10/07 14:57:43;;;;;;;14.65;4.47;;;;;;;;;;4390149;32;20268;-91
2023/10/07 15:00:12;;;;;;;11.50;4.95;;;;;;;;;;4390816;32;20312;-91
2023/10/07 15:02:45;;;;;;;7.70;4.72;;;;;;;;;;4395914;32;20245;-91
2023/10/07 15:05:26;;;;;;;7.70;4.22;;;;;;;;;;4401635;32;20202;-91
2023/10/07 15:08:03;;;;;;;5.00;3.22;;;;;;;;;;4382299;32;20365;-91
2023/10/07 15:10:36;;;;;;;12.57;4.07;;;;;;;;;;4393030;32;20207;-92
2023/10/07 15:13:10;;;;;;;7.95;3.92;;;;;;;;;;4404236;32;20245;-93